sensor_id;sensor_type;location;lat;lon;timestamp;pressure;altitude;pressure_sealevel;temperature;humidity
28628;BME280;15815;46.760;19.604;2024-03-07T00:00:12;100255.50;;;8.14;78.71
28628;BME280;15815;46.760;19.604;2024-03-07T00:03:07;100253.44;;;8.04;79.77
28628;BME280;15815;46.760;19.604;2024-03-07T00:05:32;100251.44;;;8.08;80.17
28628;BME280;15815;46.760;19.604;2024-03-07T00:07:58;100246.63;;;8.05;80.48
28628;BME280;15815;46.760;19.604;2024-03-07T00:10:26;100260.63;;;8.05;80.74
28628;BME280;15815;46.760;19.604;2024-03-07T00:12:51;100255.00;;;7.98;81.55
28628;BME280;15815;46.760;19.604;2024-03-07T00:15:17;100246.94;;;7.93;81.45
28628;BME280;15815;46.760;19.604;2024-03-07T00:17:42;100254.22;;;8.04;80.82
28628;BME280;15815;46.760;19.604;2024-03-07T00:20:08;100249.81;;;8.03;81.91
28628;BME280;15815;46.760;19.604;2024-03-07T00:22:35;100252.19;;;7.98;82.54
28628;BME280;15815;46.760;19.604;2024-03-07T00:25:01;100244.09;;;7.89;82.49
28628;BME280;15815;46.760;19.604;2024-03-07T00:27:27;100259.03;;;8.04;82.35
28628;BME280;15815;46.760;19.604;2024-03-07T00:29:55;100241.00;;;7.98;81.71
28628;BME280;15815;46.760;19.604;2024-03-07T00:32:20;100246.59;;;7.98;82.20
28628;BME280;15815;46.760;19.604;2024-03-07T00:34:47;100236.47;;;7.83;82.55
28628;BME280;15815;46.760;19.604;2024-03-07T00:37:14;100236.06;;;7.81;83.51
28628;BME280;15815;46.760;19.604;2024-03-07T00:39:39;100229.63;;;7.77;82.96
28628;BME280;15815;46.760;19.604;2024-03-07T00:42:05;100220.03;;;7.78;83.26
28628;BME280;15815;46.760;19.604;2024-03-07T00:44:41;100223.66;;;7.78;84.36
28628;BME280;15815;46.760;19.604;2024-03-07T00:47:06;100221.28;;;7.84;83.93
28628;BME280;15815;46.760;19.604;2024-03-07T00:49:32;100226.06;;;7.80;83.89
28628;BME280;15815;46.760;19.604;2024-03-07T00:52:04;100210.47;;;7.79;83.84
28628;BME280;15815;46.760;19.604;2024-03-07T00:54:29;100204.34;;;7.66;85.21
28628;BME280;15815;46.760;19.604;2024-03-07T00:57:17;100216.00;;;7.71;84.21
28628;BME280;15815;46.760;19.604;2024-03-07T00:59:42;100207.94;;;7.66;84.38
28628;BME280;15815;46.760;19.604;2024-03-07T01:02:08;100203.84;;;7.53;84.83
28628;BME280;15815;46.760;19.604;2024-03-07T01:04:33;100203.47;;;7.55;84.99
28628;BME280;15815;46.760;19.604;2024-03-07T01:06:59;100197.03;;;7.47;85.77
28628;BME280;15815;46.760;19.604;2024-03-07T01:09:26;100206.25;;;7.51;85.90
28628;BME280;15815;46.760;19.604;2024-03-07T01:11:52;100198.59;;;7.44;86.67
28628;BME280;15815;46.760;19.604;2024-03-07T01:14:24;100193.41;;;7.43;86.58
28628;BME280;15815;46.760;19.604;2024-03-07T01:16:50;100207.03;;;7.52;86.79
28628;BME280;15815;46.760;19.604;2024-03-07T01:19:15;100203.81;;;7.46;86.45
28628;BME280;15815;46.760;19.604;2024-03-07T01:21:41;100197.31;;;7.38;87.15
28628;BME280;15815;46.760;19.604;2024-03-07T01:24:07;100188.63;;;7.47;86.78
28628;BME280;15815;46.760;19.604;2024-03-07T01:26:32;100205.09;;;7.59;86.69
28628;BME280;15815;46.760;19.604;2024-03-07T01:28:59;100187.06;;;7.53;86.33
28628;BME280;15815;46.760;19.604;2024-03-07T01:31:25;100205.47;;;7.54;86.67
28628;BME280;15815;46.760;19.604;2024-03-07T01:33:51;100207.44;;;7.50;86.71
28628;BME280;15815;46.760;19.604;2024-03-07T01:36:31;100203.81;;;7.46;86.79
28628;BME280;15815;46.760;19.604;2024-03-07T01:38:56;100210.56;;;7.41;88.25
28628;BME280;15815;46.760;19.604;2024-03-07T01:41:22;100209.00;;;7.48;87.44
28628;BME280;15815;46.760;19.604;2024-03-07T01:43:47;100218.28;;;7.59;86.72
28628;BME280;15815;46.760;19.604;2024-03-07T01:46:13;100211.06;;;7.54;88.04
28628;BME280;15815;46.760;19.604;2024-03-07T01:48:39;100218.69;;;7.61;87.53
28628;BME280;15815;46.760;19.604;2024-03-07T01:51:05;100215.09;;;7.60;86.59
28628;BME280;15815;46.760;19.604;2024-03-07T01:53:38;100213.91;;;7.61;86.43
28628;BME280;15815;46.760;19.604;2024-03-07T01:56:05;100201.06;;;7.53;86.72
28628;BME280;15815;46.760;19.604;2024-03-07T01:58:31;100189.41;;;7.44;86.75
28628;BME280;15815;46.760;19.604;2024-03-07T02:01:05;100191.47;;;7.54;86.48
28628;BME280;15815;46.760;19.604;2024-03-07T02:03:30;100188.66;;;7.51;86.46
28628;BME280;15815;46.760;19.604;2024-03-07T02:05:56;100183.47;;;7.53;86.08
28628;BME280;15815;46.760;19.604;2024-03-07T02:08:22;100185.09;;;7.54;86.40
28628;BME280;15815;46.760;19.604;2024-03-07T02:10:48;100195.09;;;7.58;86.21
28628;BME280;15815;46.760;19.604;2024-03-07T02:13:14;100195.03;;;7.48;86.64
28628;BME280;15815;46.760;19.604;2024-03-07T02:15:39;100193.47;;;7.54;87.02
28628;BME280;15815;46.760;19.604;2024-03-07T02:18:45;100199.09;;;7.57;87.01
28628;BME280;15815;46.760;19.604;2024-03-07T02:21:10;100187.88;;;7.54;86.22
28628;BME280;15815;46.760;19.604;2024-03-07T02:23:37;100190.69;;;7.57;86.29
28628;BME280;15815;46.760;19.604;2024-03-07T02:26:03;100201.13;;;7.60;85.52
28628;BME280;15815;46.760;19.604;2024-03-07T02:28:29;100199.09;;;7.57;86.53
28628;BME280;15815;46.760;19.604;2024-03-07T02:30:54;100197.47;;;7.56;85.93
28628;BME280;15815;46.760;19.604;2024-03-07T02:33:32;100192.97;;;7.41;87.22
28628;BME280;15815;46.760;19.604;2024-03-07T02:35:58;100209.09;;;7.58;85.92
28628;BME280;15815;46.760;19.604;2024-03-07T02:38:23;100200.59;;;7.44;85.83
28628;BME280;15815;46.760;19.604;2024-03-07T02:41:09;100215.06;;;7.57;85.27
28628;BME280;15815;46.760;19.604;2024-03-07T02:43:35;100205.44;;;7.51;85.38
28628;BME280;15815;46.760;19.604;2024-03-07T02:46:09;100199.06;;;7.54;85.57
28628;BME280;15815;46.760;19.604;2024-03-07T02:48:35;100193.00;;;7.44;84.79
28628;BME280;15815;46.760;19.604;2024-03-07T02:51:00;100207.81;;;7.49;85.01
28628;BME280;15815;46.760;19.604;2024-03-07T02:53:27;100195.00;;;7.44;84.71
28628;BME280;15815;46.760;19.604;2024-03-07T02:55:53;100202.56;;;7.40;85.27
28628;BME280;15815;46.760;19.604;2024-03-07T02:58:19;100203.72;;;7.39;84.74
28628;BME280;15815;46.760;19.604;2024-03-07T03:01:14;100218.16;;;7.41;85.29
28628;BME280;15815;46.760;19.604;2024-03-07T03:03:40;100202.88;;;7.35;85.03
28628;BME280;15815;46.760;19.604;2024-03-07T03:06:09;100211.69;;;7.37;85.26
28628;BME280;15815;46.760;19.604;2024-03-07T03:08:40;100198.03;;;7.28;85.86
28628;BME280;15815;46.760;19.604;2024-03-07T03:11:05;100213.00;;;7.47;84.90
28628;BME280;15815;46.760;19.604;2024-03-07T03:13:31;100209.31;;;7.39;85.00
28628;BME280;15815;46.760;19.604;2024-03-07T03:15:58;100204.44;;;7.29;85.55
28628;BME280;15815;46.760;19.604;2024-03-07T03:18:24;100214.84;;;7.32;85.05
28628;BME280;15815;46.760;19.604;2024-03-07T03:20:50;100217.69;;;7.39;85.19
28628;BME280;15815;46.760;19.604;2024-03-07T03:23:16;100214.16;;;7.42;85.60
28628;BME280;15815;46.760;19.604;2024-03-07T03:25:42;100214.09;;;7.38;85.09
28628;BME280;15815;46.760;19.604;2024-03-07T03:28:08;100222.50;;;7.38;84.87
28628;BME280;15815;46.760;19.604;2024-03-07T03:30:33;100212.47;;;7.34;84.81
28628;BME280;15815;46.760;19.604;2024-03-07T03:32:59;100215.69;;;7.36;84.86
28628;BME280;15815;46.760;19.604;2024-03-07T03:35:46;100218.94;;;7.41;85.18
28628;BME280;15815;46.760;19.604;2024-03-07T03:38:14;100216.44;;;7.33;85.21
28628;BME280;15815;46.760;19.604;2024-03-07T03:40:42;100226.09;;;7.39;84.83
28628;BME280;15815;46.760;19.604;2024-03-07T03:43:33;100229.69;;;7.39;85.03
28628;BME280;15815;46.760;19.604;2024-03-07T03:45:59;100229.66;;;7.36;85.47
28628;BME280;15815;46.760;19.604;2024-03-07T03:48:24;100228.53;;;7.40;85.03
28628;BME280;15815;46.760;19.604;2024-03-07T03:50:51;100213.28;;;7.34;85.14
28628;BME280;15815;46.760;19.604;2024-03-07T03:53:17;100220.84;;;7.34;85.28
28628;BME280;15815;46.760;19.604;2024-03-07T03:55:42;100216.06;;;7.34;85.29
28628;BME280;15815;46.760;19.604;2024-03-07T03:58:11;100229.25;;;7.34;85.32
28628;BME280;15815;46.760;19.604;2024-03-07T04:00:36;100212.41;;;7.27;86.34
28628;BME280;15815;46.760;19.604;2024-03-07T04:03:02;100218.84;;;7.34;85.54
28628;BME280;15815;46.760;19.604;2024-03-07T04:05:28;100214.06;;;7.35;85.42
28628;BME280;15815;46.760;19.604;2024-03-07T04:07:56;100214.88;;;7.35;85.75
28628;BME280;15815;46.760;19.604;2024-03-07T04:10:46;100222.97;;;7.44;85.78
28628;BME280;15815;46.760;19.604;2024-03-07T04:13:12;100221.69;;;7.38;85.50
28628;BME280;15815;46.760;19.604;2024-03-07T04:15:37;100222.13;;;7.40;85.69
28628;BME280;15815;46.760;19.604;2024-03-07T04:18:04;100211.25;;;7.31;85.27
28628;BME280;15815;46.760;19.604;2024-03-07T04:20:30;100212.06;;;7.35;85.60
28628;BME280;15815;46.760;19.604;2024-03-07T04:22:55;100202.81;;;7.28;85.58
28628;BME280;15815;46.760;19.604;2024-03-07T04:25:31;100217.63;;;7.32;86.03
28628;BME280;15815;46.760;19.604;2024-03-07T04:27:57;100199.56;;;7.19;86.89
28628;BME280;15815;46.760;19.604;2024-03-07T04:30:22;100191.13;;;7.15;86.29
28628;BME280;15815;46.760;19.604;2024-03-07T04:32:48;100198.75;;;7.18;86.06
28628;BME280;15815;46.760;19.604;2024-03-07T04:35:13;100207.16;;;7.22;85.98
28628;BME280;15815;46.760;19.604;2024-03-07T04:37:39;100212.00;;;7.25;85.81
28628;BME280;15815;46.760;19.604;2024-03-07T04:40:08;100199.47;;;7.11;85.54
28628;BME280;15815;46.760;19.604;2024-03-07T04:42:34;100222.75;;;7.23;85.27
28628;BME280;15815;46.760;19.604;2024-03-07T04:45:00;100220.31;;;7.18;85.53
28628;BME280;15815;46.760;19.604;2024-03-07T04:47:26;100218.72;;;7.17;85.35
28628;BME280;15815;46.760;19.604;2024-03-07T04:49:51;100228.72;;;7.21;84.63
28628;BME280;15815;46.760;19.604;2024-03-07T04:52:26;100232.69;;;7.17;84.61
28628;BME280;15815;46.760;19.604;2024-03-07T04:54:51;100229.13;;;7.20;84.20
28628;BME280;15815;46.760;19.604;2024-03-07T04:57:17;100236.34;;;7.24;83.99
28628;BME280;15815;46.760;19.604;2024-03-07T04:59:43;100237.13;;;7.21;83.95
28628;BME280;15815;46.760;19.604;2024-03-07T05:02:08;100242.38;;;7.30;84.10
28628;BME280;15815;46.760;19.604;2024-03-07T05:04:34;100251.97;;;7.29;83.96
28628;BME280;15815;46.760;19.604;2024-03-07T05:06:59;100251.56;;;7.30;83.13
28628;BME280;15815;46.760;19.604;2024-03-07T05:09:25;100256.69;;;7.21;83.77
28628;BME280;15815;46.760;19.604;2024-03-07T05:11:58;100252.34;;;7.27;83.32
28628;BME280;15815;46.760;19.604;2024-03-07T05:14:23;100257.56;;;7.29;83.17
28628;BME280;15815;46.760;19.604;2024-03-07T05:16:49;100257.91;;;7.24;83.16
28628;BME280;15815;46.760;19.604;2024-03-07T05:19:17;100264.72;;;7.26;82.98
28628;BME280;15815;46.760;19.604;2024-03-07T05:21:43;100262.31;;;7.25;82.99
28628;BME280;15815;46.760;19.604;2024-03-07T05:24:11;100265.47;;;7.20;83.55
28628;BME280;15815;46.760;19.604;2024-03-07T05:26:37;100256.63;;;7.14;83.79
28628;BME280;15815;46.760;19.604;2024-03-07T05:29:28;100261.09;;;7.22;84.02
28628;BME280;15815;46.760;19.604;2024-03-07T05:31:53;100264.25;;;7.21;83.43
28628;BME280;15815;46.760;19.604;2024-03-07T05:34:19;100265.94;;;7.29;83.41
28628;BME280;15815;46.760;19.604;2024-03-07T05:36:45;100267.13;;;7.28;83.20
28628;BME280;15815;46.760;19.604;2024-03-07T05:39:12;100263.50;;;7.24;82.15
28628;BME280;15815;46.760;19.604;2024-03-07T05:41:38;100256.94;;;7.09;82.73
28628;BME280;15815;46.760;19.604;2024-03-07T05:44:04;100258.53;;;7.10;82.55
28628;BME280;15815;46.760;19.604;2024-03-07T05:46:30;100276.25;;;7.21;82.92
28628;BME280;15815;46.760;19.604;2024-03-07T05:49:09;100267.47;;;7.23;82.56
28628;BME280;15815;46.760;19.604;2024-03-07T05:51:34;100273.03;;;7.19;82.34
28628;BME280;15815;46.760;19.604;2024-03-07T05:54:00;100276.97;;;7.15;81.69
28628;BME280;15815;46.760;19.604;2024-03-07T05:57:03;100278.25;;;7.21;80.88
28628;BME280;15815;46.760;19.604;2024-03-07T05:59:29;100281.03;;;7.21;81.14
28628;BME280;15815;46.760;19.604;2024-03-07T06:02:01;100276.22;;;7.18;82.00
28628;BME280;15815;46.760;19.604;2024-03-07T06:04:26;100277.84;;;7.22;81.47
28628;BME280;15815;46.760;19.604;2024-03-07T06:06:52;100282.72;;;7.29;81.66
28628;BME280;15815;46.760;19.604;2024-03-07T06:09:18;100248.88;;;7.00;81.03
28628;BME280;15815;46.760;19.604;2024-03-07T06:11:43;100289.91;;;7.30;81.00
28628;BME280;15815;46.760;19.604;2024-03-07T06:14:09;100271.91;;;7.27;81.05
28628;BME280;15815;46.760;19.604;2024-03-07T06:16:38;100285.97;;;7.34;79.95
28628;BME280;15815;46.760;19.604;2024-03-07T06:19:04;100284.34;;;7.33;79.88
28628;BME280;15815;46.760;19.604;2024-03-07T06:21:30;100281.88;;;7.25;80.44
28628;BME280;15815;46.760;19.604;2024-03-07T06:23:56;100290.25;;;7.25;80.16
28628;BME280;15815;46.760;19.604;2024-03-07T06:26:22;100287.47;;;7.25;80.32
28628;BME280;15815;46.760;19.604;2024-03-07T06:28:55;100283.97;;;7.35;80.13
28628;BME280;15815;46.760;19.604;2024-03-07T06:31:21;100298.06;;;7.42;80.29
28628;BME280;15815;46.760;19.604;2024-03-07T06:33:46;100296.28;;;7.27;79.32
28628;BME280;15815;46.760;19.604;2024-03-07T06:36:20;100294.31;;;7.31;80.33
28628;BME280;15815;46.760;19.604;2024-03-07T06:38:46;100290.72;;;7.30;79.36
28628;BME280;15815;46.760;19.604;2024-03-07T06:41:11;100298.72;;;7.32;79.97
28628;BME280;15815;46.760;19.604;2024-03-07T06:43:56;100313.28;;;7.48;79.58
28628;BME280;15815;46.760;19.604;2024-03-07T06:46:24;100315.25;;;7.44;80.04
28628;BME280;15815;46.760;19.604;2024-03-07T06:48:54;100314.13;;;7.52;80.02
28628;BME280;15815;46.760;19.604;2024-03-07T06:51:20;100320.66;;;7.67;80.12
28628;BME280;15815;46.760;19.604;2024-03-07T06:53:45;100314.34;;;7.73;79.54
28628;BME280;15815;46.760;19.604;2024-03-07T06:56:11;100318.31;;;7.69;79.74
28628;BME280;15815;46.760;19.604;2024-03-07T06:58:36;100323.53;;;7.74;79.60
28628;BME280;15815;46.760;19.604;2024-03-07T07:01:03;100309.41;;;7.60;80.29
28628;BME280;15815;46.760;19.604;2024-03-07T07:03:29;100328.56;;;7.58;79.33
28628;BME280;15815;46.760;19.604;2024-03-07T07:05:57;100308.97;;;7.58;78.70
28628;BME280;15815;46.760;19.604;2024-03-07T07:08:25;100314.25;;;7.66;78.35
28628;BME280;15815;46.760;19.604;2024-03-07T07:10:50;100322.22;;;7.64;78.75
28628;BME280;15815;46.760;19.604;2024-03-07T07:13:16;100321.47;;;7.67;78.81
28628;BME280;15815;46.760;19.604;2024-03-07T07:15:44;100322.78;;;7.81;77.78
28628;BME280;15815;46.760;19.604;2024-03-07T07:18:10;100330.44;;;7.87;77.67
28628;BME280;15815;46.760;19.604;2024-03-07T07:20:39;100334.66;;;8.11;78.42
28628;BME280;15815;46.760;19.604;2024-03-07T07:23:20;100326.22;;;8.04;77.04
28628;BME280;15815;46.760;19.604;2024-03-07T07:25:46;100334.28;;;8.16;77.63
28628;BME280;15815;46.760;19.604;2024-03-07T07:28:12;100327.59;;;8.28;77.63
28628;BME280;15815;46.760;19.604;2024-03-07T07:30:37;100332.41;;;8.31;76.14
28628;BME280;15815;46.760;19.604;2024-03-07T07:33:03;100321.50;;;8.19;75.35
28628;BME280;15815;46.760;19.604;2024-03-07T07:35:29;100334.00;;;8.28;76.18
28628;BME280;15815;46.760;19.604;2024-03-07T07:37:54;100334.38;;;8.23;75.93
28628;BME280;15815;46.760;19.604;2024-03-07T07:40:20;100338.81;;;8.31;76.15
28628;BME280;15815;46.760;19.604;2024-03-07T07:42:47;100350.00;;;8.28;76.94
28628;BME280;15815;46.760;19.604;2024-03-07T07:45:14;100344.31;;;8.21;76.12
28628;BME280;15815;46.760;19.604;2024-03-07T07:47:41;100344.59;;;8.05;75.78
28628;BME280;15815;46.760;19.604;2024-03-07T07:50:08;100345.47;;;8.13;76.47
28628;BME280;15815;46.760;19.604;2024-03-07T07:52:44;100345.06;;;8.11;75.76
28628;BME280;15815;46.760;19.604;2024-03-07T07:55:10;100342.63;;;8.09;76.36
28628;BME280;15815;46.760;19.604;2024-03-07T07:57:35;100345.06;;;8.14;76.12
28628;BME280;15815;46.760;19.604;2024-03-07T08:00:20;100362.75;;;8.22;75.77
28628;BME280;15815;46.760;19.604;2024-03-07T08:02:59;100347.03;;;8.10;76.11
28628;BME280;15815;46.760;19.604;2024-03-07T08:05:27;100353.97;;;8.23;76.04
28628;BME280;15815;46.760;19.604;2024-03-07T08:07:55;100365.59;;;8.29;76.15
28628;BME280;15815;46.760;19.604;2024-03-07T08:10:22;100355.44;;;8.10;75.69
28628;BME280;15815;46.760;19.604;2024-03-07T08:12:52;100359.84;;;8.11;77.00
28628;BME280;15815;46.760;19.604;2024-03-07T08:15:17;100370.69;;;8.16;75.49
28628;BME280;15815;46.760;19.604;2024-03-07T08:17:44;100368.44;;;8.32;76.61
28628;BME280;15815;46.760;19.604;2024-03-07T08:20:17;100363.81;;;8.51;76.46
28628;BME280;15815;46.760;19.604;2024-03-07T08:22:43;100369.03;;;8.56;76.85
28628;BME280;15815;46.760;19.604;2024-03-07T08:25:10;100368.63;;;8.54;75.85
28628;BME280;15815;46.760;19.604;2024-03-07T08:27:46;100366.25;;;8.56;76.06
28628;BME280;15815;46.760;19.604;2024-03-07T08:30:12;100370.78;;;8.78;76.95
28628;BME280;15815;46.760;19.604;2024-03-07T08:32:43;100366.78;;;8.79;75.27
28628;BME280;15815;46.760;19.604;2024-03-07T08:35:09;100374.75;;;8.74;74.58
28628;BME280;15815;46.760;19.604;2024-03-07T08:37:35;100369.91;;;8.67;74.62
28628;BME280;15815;46.760;19.604;2024-03-07T08:40:02;100363.84;;;8.54;75.35
28628;BME280;15815;46.760;19.604;2024-03-07T08:42:34;100375.50;;;8.67;76.21
28628;BME280;15815;46.760;19.604;2024-03-07T08:45:03;100371.03;;;8.52;75.83
28628;BME280;15815;46.760;19.604;2024-03-07T08:47:33;100369.13;;;8.70;76.71
28628;BME280;15815;46.760;19.604;2024-03-07T08:49:59;100370.31;;;8.65;75.58
28628;BME280;15815;46.760;19.604;2024-03-07T08:52:26;100358.22;;;8.54;76.02
28628;BME280;15815;46.760;19.604;2024-03-07T08:54:56;100384.75;;;8.71;75.78
28628;BME280;15815;46.760;19.604;2024-03-07T08:57:21;100384.28;;;8.62;75.06
28628;BME280;15815;46.760;19.604;2024-03-07T08:59:47;100380.25;;;8.56;75.26
28628;BME280;15815;46.760;19.604;2024-03-07T09:02:13;100382.28;;;8.59;75.56
28628;BME280;15815;46.760;19.604;2024-03-07T09:04:39;100372.63;;;8.53;75.67
28628;BME280;15815;46.760;19.604;2024-03-07T09:07:05;100390.22;;;8.50;75.05
28628;BME280;15815;46.760;19.604;2024-03-07T09:09:30;100383.34;;;8.44;74.39
28628;BME280;15815;46.760;19.604;2024-03-07T09:11:56;100385.44;;;8.54;75.52
28628;BME280;15815;46.760;19.604;2024-03-07T09:14:37;100398.34;;;8.69;75.74
28628;BME280;15815;46.760;19.604;2024-03-07T09:17:03;100393.53;;;8.66;74.81
28628;BME280;15815;46.760;19.604;2024-03-07T09:19:29;100378.22;;;8.53;74.66
28628;BME280;15815;46.760;19.604;2024-03-07T09:21:54;100375.31;;;8.39;75.37
28628;BME280;15815;46.760;19.604;2024-03-07T09:24:20;100399.50;;;8.64;75.45
28628;BME280;15815;46.760;19.604;2024-03-07T09:26:46;100391.38;;;8.49;73.95
28628;BME280;15815;46.760;19.604;2024-03-07T09:29:12;100403.88;;;8.58;74.93
28628;BME280;15815;46.760;19.604;2024-03-07T09:31:37;100408.69;;;8.58;75.63
28628;BME280;15815;46.760;19.604;2024-03-07T09:34:03;100403.06;;;8.58;75.56
28628;BME280;15815;46.760;19.604;2024-03-07T09:36:33;100405.50;;;8.63;75.38
28628;BME280;15815;46.760;19.604;2024-03-07T09:38:58;100410.25;;;8.52;75.13
28628;BME280;15815;46.760;19.604;2024-03-07T09:41:24;100409.44;;;8.51;75.01
28628;BME280;15815;46.760;19.604;2024-03-07T09:44:16;100417.47;;;8.56;74.99
28628;BME280;15815;46.760;19.604;2024-03-07T09:46:45;100411.03;;;8.52;74.66
28628;BME280;15815;46.760;19.604;2024-03-07T09:49:11;100407.03;;;8.50;75.15
28628;BME280;15815;46.760;19.604;2024-03-07T09:51:38;100411.50;;;8.61;76.04
28628;BME280;15815;46.760;19.604;2024-03-07T09:54:05;100427.16;;;8.66;75.73
28628;BME280;15815;46.760;19.604;2024-03-07T09:56:31;100423.38;;;8.48;76.84
28628;BME280;15815;46.760;19.604;2024-03-07T09:59:12;100428.19;;;8.47;76.68
28628;BME280;15815;46.760;19.604;2024-03-07T10:01:37;100427.78;;;8.49;76.54
28628;BME280;15815;46.760;19.604;2024-03-07T10:04:08;100424.59;;;8.47;76.53
28628;BME280;15815;46.760;19.604;2024-03-07T10:06:41;100426.63;;;8.50;76.87
28628;BME280;15815;46.760;19.604;2024-03-07T10:09:10;100421.72;;;8.40;76.53
28628;BME280;15815;46.760;19.604;2024-03-07T10:11:35;100420.53;;;8.41;76.92
28628;BME280;15815;46.760;19.604;2024-03-07T10:14:14;100428.25;;;8.54;76.87
28628;BME280;15815;46.760;19.604;2024-03-07T10:16:39;100436.19;;;8.49;76.42
28628;BME280;15815;46.760;19.604;2024-03-07T10:19:05;100436.66;;;8.54;77.17
28628;BME280;15815;46.760;19.604;2024-03-07T10:21:47;100431.03;;;8.51;76.83
28628;BME280;15815;46.760;19.604;2024-03-07T10:24:12;100429.44;;;8.50;76.75
28628;BME280;15815;46.760;19.604;2024-03-07T10:26:38;100435.09;;;8.57;76.65
28628;BME280;15815;46.760;19.604;2024-03-07T10:29:14;100442.31;;;8.58;77.06
28628;BME280;15815;46.760;19.604;2024-03-07T10:31:40;100437.16;;;8.67;77.01
28628;BME280;15815;46.760;19.604;2024-03-07T10:34:05;100447.28;;;8.82;76.77
28628;BME280;15815;46.760;19.604;2024-03-07T10:36:33;100429.09;;;8.58;76.52
28628;BME280;15815;46.760;19.604;2024-03-07T10:38:59;100449.97;;;8.68;76.62
28628;BME280;15815;46.760;19.604;2024-03-07T10:41:27;100436.78;;;8.72;77.36
28628;BME280;15815;46.760;19.604;2024-03-07T10:44:00;100448.50;;;8.81;77.03
28628;BME280;15815;46.760;19.604;2024-03-07T10:46:26;100450.50;;;8.84;76.76
28628;BME280;15815;46.760;19.604;2024-03-07T10:48:55;100437.69;;;8.83;77.39
28628;BME280;15815;46.760;19.604;2024-03-07T10:51:29;100429.66;;;8.82;76.57
28628;BME280;15815;46.760;19.604;2024-03-07T10:54:22;100451.41;;;9.03;77.89
28628;BME280;15815;46.760;19.604;2024-03-07T10:56:56;100454.91;;;8.85;77.29
28628;BME280;15815;46.760;19.604;2024-03-07T10:59:29;100444.56;;;8.96;77.77
28628;BME280;15815;46.760;19.604;2024-03-07T11:04:42;100457.09;;;9.10;77.31
28628;BME280;15815;46.760;19.604;2024-03-07T11:07:08;100452.25;;;9.07;78.17
28628;BME280;15815;46.760;19.604;2024-03-07T11:09:34;100449.81;;;9.02;78.42
28628;BME280;15815;46.760;19.604;2024-03-07T11:12:01;100456.28;;;9.06;78.30
28628;BME280;15815;46.760;19.604;2024-03-07T11:14:28;100452.19;;;8.99;77.74
28628;BME280;15815;46.760;19.604;2024-03-07T11:16:54;100450.19;;;9.00;79.43
28628;BME280;15815;46.760;19.604;2024-03-07T11:19:41;100457.41;;;9.01;79.43
28628;BME280;15815;46.760;19.604;2024-03-07T11:22:07;100440.97;;;8.96;78.95
28628;BME280;15815;46.760;19.604;2024-03-07T11:24:32;100436.16;;;8.96;79.14
28628;BME280;15815;46.760;19.604;2024-03-07T11:27:03;100456.59;;;9.01;79.77
28628;BME280;15815;46.760;19.604;2024-03-07T11:29:49;100436.47;;;8.81;80.06
28628;BME280;15815;46.760;19.604;2024-03-07T11:32:15;100457.81;;;9.03;80.00
28628;BME280;15815;46.760;19.604;2024-03-07T11:34:45;100413.28;;;8.87;80.30
28628;BME280;15815;46.760;19.604;2024-03-07T11:37:16;100435.44;;;9.07;80.71
28628;BME280;15815;46.760;19.604;2024-03-07T11:39:46;100457.47;;;9.05;79.57
28628;BME280;15815;46.760;19.604;2024-03-07T11:42:30;100455.00;;;8.99;81.44
28628;BME280;15815;46.760;19.604;2024-03-07T11:44:56;100450.34;;;9.21;80.38
28628;BME280;15815;46.760;19.604;2024-03-07T11:47:26;100457.91;;;9.14;81.50
28628;BME280;15815;46.760;19.604;2024-03-07T11:50:07;100464.75;;;9.23;82.11
28628;BME280;15815;46.760;19.604;2024-03-07T11:52:33;100445.53;;;9.22;80.69
28628;BME280;15815;46.760;19.604;2024-03-07T11:54:59;100442.72;;;9.22;81.96
28628;BME280;15815;46.760;19.604;2024-03-07T11:57:24;100461.19;;;9.26;81.53
28628;BME280;15815;46.760;19.604;2024-03-07T11:59:50;100442.69;;;9.15;80.05
28628;BME280;15815;46.760;19.604;2024-03-07T12:02:18;100423.06;;;9.15;80.17
28628;BME280;15815;46.760;19.604;2024-03-07T12:04:44;100445.97;;;9.31;81.06
28628;BME280;15815;46.760;19.604;2024-03-07T12:07:10;100406.22;;;9.08;80.49
28628;BME280;15815;46.760;19.604;2024-03-07T12:09:39;100433.13;;;9.26;82.05
28628;BME280;15815;46.760;19.604;2024-03-07T12:12:06;100424.38;;;9.32;81.67
28628;BME280;15815;46.760;19.604;2024-03-07T12:14:31;100397.41;;;9.13;80.90
28628;BME280;15815;46.760;19.604;2024-03-07T12:17:05;100450.03;;;9.37;81.04
28628;BME280;15815;46.760;19.604;2024-03-07T12:19:34;100434.31;;;9.22;81.27
28628;BME280;15815;46.760;19.604;2024-03-07T12:22:01;100434.72;;;9.24;80.82
28628;BME280;15815;46.760;19.604;2024-03-07T12:24:36;100429.88;;;9.17;81.93
28628;BME280;15815;46.760;19.604;2024-03-07T12:27:09;100445.16;;;9.27;80.80
28628;BME280;15815;46.760;19.604;2024-03-07T12:29:39;100435.63;;;9.42;81.16
28628;BME280;15815;46.760;19.604;2024-03-07T12:32:09;100421.94;;;9.30;81.45
28628;BME280;15815;46.760;19.604;2024-03-07T12:34:35;100440.44;;;9.45;80.87
28628;BME280;15815;46.760;19.604;2024-03-07T12:37:00;100426.03;;;9.50;81.39
28628;BME280;15815;46.760;19.604;2024-03-07T12:39:26;100435.66;;;9.53;82.77
28628;BME280;15815;46.760;19.604;2024-03-07T12:41:52;100440.34;;;9.31;80.40
28628;BME280;15815;46.760;19.604;2024-03-07T12:44:18;100437.13;;;9.22;80.75
28628;BME280;15815;46.760;19.604;2024-03-07T12:46:47;100432.66;;;9.14;81.06
28628;BME280;15815;46.760;19.604;2024-03-07T12:49:14;100433.91;;;9.20;81.65
28628;BME280;15815;46.760;19.604;2024-03-07T12:51:40;100430.53;;;8.93;81.30
28628;BME280;15815;46.760;19.604;2024-03-07T12:54:05;100429.78;;;8.99;81.49
28628;BME280;15815;46.760;19.604;2024-03-07T12:56:31;100434.63;;;9.06;81.27
28628;BME280;15815;46.760;19.604;2024-03-07T12:59:14;100433.91;;;9.23;80.98